Time;durP1;ratioP1;P1;durP2;ratioP2;P2;SDS_P1;SDS_P2;PMS_P1;PMS_P2;Temp;Humidity;BMP_temperature;BMP_pressure;BME280_temperature;BME280_humidity;BME280_pressure;Samples;Min_cycle;Max_cycle;Signal;HPM_P1;HPM_P2
2023/02/16 00:01:50;;;;;;;84.40;58.40;;;6.10;84.30;;;;;;5030544;28;20038;-74
2023/02/16 00:04:28;;;;;;;80.13;57.47;;;6.10;84.40;;;;;;5025362;28;20673;-76
2023/02/16 00:06:55;;;;;;;83.10;59.67;;;6.10;84.50;;;;;;5021795;28;20034;-74
2023/02/16 00:09:22;;;;;;;85.55;58.78;;;6.10;84.40;;;;;;5026205;28;20033;-80
2023/02/16 00:14:35;;;;;;;85.13;59.47;;;6.10;84.60;;;;;;5027802;28;20397;-76
2023/02/16 00:17:01;;;;;;;89.78;61.25;;;6.10;84.60;;;;;;5030694;28;20472;-75
2023/02/16 00:19:34;;;;;;;84.80;60.38;;;6.10;84.60;;;;;;5025849;28;20416;-75
2023/02/16 00:22:00;;;;;;;84.63;59.53;;;6.10;84.80;;;;;;5022837;28;20034;-77
2023/02/16 00:24:28;;;;;;;90.00;63.15;;;6.10;84.80;;;;;;5024932;28;20026;-75
2023/02/16 00:26:55;;;;;;;93.32;63.08;;;6.10;85.00;;;;;;5021784;28;20092;-74
2023/02/16 00:29:26;;;;;;;92.50;64.05;;;6.10;85.10;;;;;;5043524;28;20052;-77
2023/02/16 00:31:53;;;;;;;87.03;61.70;;;6.10;85.00;;;;;;5042148;28;20114;-74
2023/02/16 00:34:33;;;;;;;89.40;63.00;;;6.20;84.90;;;;;;5032469;28;20033;-74
2023/02/16 00:37:04;;;;;;;87.53;63.90;;;6.20;84.80;;;;;;5044958;28;20055;-74
2023/02/16 00:39:30;;;;;;;92.38;62.22;;;6.20;84.70;;;;;;5049995;28;20036;-73
2023/02/16 00:42:24;;;;;;;85.13;59.88;;;6.20;84.70;;;;;;5046366;28;20537;-76
2023/02/16 00:44:52;;;;;;;83.53;60.75;;;6.20;84.70;;;;;;5038892;28;20045;-74
2023/02/16 00:47:28;;;;;;;91.70;64.68;;;6.20;84.70;;;;;;5041244;28;20037;-76
2023/02/16 00:49:54;;;;;;;88.05;62.85;;;6.20;84.70;;;;;;5046332;28;20051;-77
2023/02/16 00:52:36;;;;;;;84.07;60.90;;;6.20;84.60;;;;;;5041671;28;20378;-76
2023/02/16 00:55:06;;;;;;;82.40;60.72;;;6.20;84.70;;;;;;5044145;28;20648;-73
2023/02/16 00:57:36;;;;;;;93.45;62.53;;;6.10;84.70;;;;;;5042276;28;20067;-76
2023/02/16 01:00:23;;;;;;;88.18;60.15;;;6.10;84.80;;;;;;5044006;28;20031;-77
2023/02/16 01:02:50;;;;;;;89.22;61.85;;;6.10;84.70;;;;;;5040126;28;20045;-73
2023/02/16 01:05:17;;;;;;;85.35;61.78;;;6.10;84.70;;;;;;5052705;28;20107;-75
2023/02/16 01:13:14;;;;;;;89.07;61.95;;;6.00;84.90;;;;;;5042549;28;20132;-75
2023/02/16 01:15:41;;;;;;;88.60;62.25;;;6.00;84.90;;;;;;5042883;28;20500;-78
2023/02/16 01:18:07;;;;;;;83.90;61.35;;;6.00;85.10;;;;;;5047393;28;20067;-76
2023/02/16 01:20:37;;;;;;;85.50;61.42;;;6.00;85.10;;;;;;5050020;28;20065;-75
2023/02/16 01:23:03;;;;;;;87.43;63.20;;;6.00;85.20;;;;;;5053884;28;20021;-76
2023/02/16 01:25:29;;;;;;;90.57;63.80;;;6.10;85.20;;;;;;5050343;28;20025;-74
2023/02/16 01:27:55;;;;;;;86.50;61.17;;;6.10;85.10;;;;;;5050331;28;20528;-81
2023/02/16 01:30:22;;;;;;;89.45;62.70;;;6.10;85.20;;;;;;5029529;28;20049;-77
2023/02/16 01:32:50;;;;;;;91.47;64.07;;;6.10;85.00;;;;;;5048537;28;20048;-74
2023/02/16 01:35:17;;;;;;;87.78;62.40;;;6.20;84.90;;;;;;5048379;28;20108;-78
2023/02/16 01:37:43;;;;;;;82.53;59.13;;;6.20;84.80;;;;;;5048140;28;20044;-75
2023/02/16 01:40:21;;;;;;;86.45;61.65;;;6.20;84.70;;;;;;5034802;28;20033;-73
2023/02/16 01:42:50;;;;;;;82.93;59.63;;;6.30;84.60;;;;;;5054834;28;20304;-74
2023/02/16 01:45:24;;;;;;;82.10;58.30;;;6.20;84.60;;;;;;5025536;28;20027;-75
2023/02/16 01:48:01;;;;;;;81.88;60.45;;;6.20;84.70;;;;;;5046066;28;20036;-75
2023/02/16 01:50:47;;;;;;;89.97;60.03;;;6.30;84.60;;;;;;5025180;28;20449;-78
2023/02/16 01:53:16;;;;;;;80.95;57.08;;;6.20;84.60;;;;;;5043345;28;20033;-76
2023/02/16 01:55:45;;;;;;;85.78;59.20;;;6.30;84.50;;;;;;5034369;28;20516;-75
2023/02/16 01:58:42;;;;;;;88.53;61.13;;;6.30;84.60;;;;;;5048147;28;20031;-75
2023/02/16 02:01:51;;;;;;;83.00;60.22;;;6.30;84.70;;;;;;5022489;28;20065;-75
2023/02/16 02:07:50;;;;;;;82.68;59.22;;;6.30;84.60;;;;;;5049300;28;20404;-77
2023/02/16 02:10:49;;;;;;;81.85;60.05;;;6.40;84.70;;;;;;5047122;28;20033;-75
2023/02/16 02:13:27;;;;;;;83.18;60.05;;;6.30;84.70;;;;;;5048424;28;20068;-74
2023/02/16 02:15:53;;;;;;;82.97;58.78;;;6.40;84.60;;;;;;5049810;28;20025;-78
2023/02/16 02:18:19;;;;;;;82.25;58.15;;;6.40;84.60;;;;;;5027206;28;20056;-74
2023/02/16 02:24:25;;;;;;;80.25;55.85;;;6.40;84.60;;;;;;5045502;28;20036;-79
2023/02/16 02:27:25;;;;;;;85.82;59.00;;;6.40;84.60;;;;;;5044980;28;20397;-77
2023/02/16 02:30:13;;;;;;;83.35;59.17;;;6.50;84.30;;;;;;5030463;28;20447;-77
2023/02/16 02:33:04;;;;;;;76.35;54.95;;;6.50;84.20;;;;;;5042621;28;20477;-75
2023/02/16 02:35:57;;;;;;;79.00;56.20;;;6.60;84.20;;;;;;5031012;28;20040;-75
2023/02/16 02:38:29;;;;;;;82.57;56.97;;;6.50;84.10;;;;;;5046075;28;20036;-79
2023/02/16 02:41:04;;;;;;;80.55;58.50;;;6.50;84.00;;;;;;5046361;28;20557;-79
2023/02/16 02:43:59;;;;;;;81.60;58.55;;;6.50;84.20;;;;;;5047119;28;20082;-74
2023/02/16 02:46:30;;;;;;;84.18;59.08;;;6.50;84.20;;;;;;5049560;28;20120;-77
2023/02/16 02:48:56;;;;;;;81.05;58.83;;;6.50;84.20;;;;;;5028107;28;20047;-73
2023/02/16 02:51:28;;;;;;;80.40;58.80;;;6.50;84.30;;;;;;5046385;28;20029;-83
2023/02/16 03:03:19;;;;;;;81.50;58.17;;;6.50;84.40;;;;;;5048368;28;20504;-81
2023/02/16 03:05:50;;;;;;;78.97;56.25;;;6.50;84.40;;;;;;5041485;28;20071;-78
2023/02/16 03:08:19;;;;;;;82.35;60.45;;;6.50;84.40;;;;;;5048922;28;20021;-74
2023/02/16 03:14:10;;;;;;;81.43;59.42;;;6.50;84.30;;;;;;5055500;28;20075;-76
2023/02/16 03:16:46;;;;;;;82.45;59.30;;;6.50;84.40;;;;;;5046582;28;20039;-78
2023/02/16 03:30:18;;;;;;;81.32;56.83;;;6.60;84.60;;;;;;5048439;28;20521;-77
2023/02/16 03:32:45;;;;;;;78.97;59.20;;;6.60;84.50;;;;;;5030033;28;20041;-76
2023/02/16 03:35:11;;;;;;;82.53;57.28;;;6.60;84.50;;;;;;5039811;28;20061;-78
2023/02/16 03:37:38;;;;;;;81.43;58.38;;;6.60;84.30;;;;;;5045488;28;20029;-75
2023/02/16 03:42:54;;;;;;;81.95;59.38;;;6.60;84.50;;;;;;5049310;28;20121;-75
2023/02/16 03:45:21;;;;;;;80.47;57.30;;;6.60;84.50;;;;;;5036874;28;20037;-76
2023/02/16 03:47:47;;;;;;;71.80;55.08;;;6.60;84.50;;;;;;5047049;28;20033;-75
2023/02/16 03:50:12;;;;;;;79.32;56.15;;;6.60;84.50;;;;;;5024416;28;20115;-76
2023/02/16 03:52:38;;;;;;;77.40;56.72;;;6.60;84.40;;;;;;5027896;28;20045;-77
2023/02/16 03:55:04;;;;;;;73.65;54.50;;;6.60;84.50;;;;;;5049638;28;20110;-75
2023/02/16 03:57:30;;;;;;;77.25;56.22;;;6.60;84.40;;;;;;5046059;28;20083;-76
2023/02/16 03:59:56;;;;;;;78.35;57.50;;;6.60;84.50;;;;;;5048655;28;20060;-75
2023/02/16 04:02:21;;;;;;;76.47;56.13;;;6.60;84.50;;;;;;5029166;28;20071;-76
2023/02/16 04:04:47;;;;;;;74.38;54.05;;;6.60;84.40;;;;;;5048120;28;20450;-76
2023/02/16 04:07:13;;;;;;;78.00;57.13;;;6.60;84.30;;;;;;5049037;28;20535;-76
2023/02/16 04:09:38;;;;;;;81.93;56.67;;;6.60;84.50;;;;;;5046936;28;20033;-76
2023/02/16 04:14:49;;;;;;;76.15;55.17;;;6.60;84.50;;;;;;5038365;28;20520;-77
2023/02/16 04:17:15;;;;;;;76.75;56.10;;;6.60;84.40;;;;;;5038424;28;20061;-78
2023/02/16 04:19:40;;;;;;;74.30;54.80;;;6.70;84.50;;;;;;5044018;28;20322;-75
2023/02/16 04:22:06;;;;;;;75.40;55.22;;;6.60;84.60;;;;;;5046398;28;20029;-76
2023/02/16 04:24:32;;;;;;;77.18;55.92;;;6.70;84.60;;;;;;5027628;28;20110;-74
2023/02/16 04:26:57;;;;;;;74.75;54.45;;;6.60;84.60;;;;;;5045695;28;20032;-75
2023/02/16 04:29:23;;;;;;;79.20;55.80;;;6.70;84.60;;;;;;5045405;28;20124;-75
2023/02/16 04:31:49;;;;;;;73.07;54.85;;;6.70;84.70;;;;;;5042370;28;20029;-76
2023/02/16 04:34:14;;;;;;;76.82;55.40;;;6.70;84.70;;;;;;5029016;28;20447;-77
2023/02/16 04:36:40;;;;;;;72.97;54.75;;;6.70;84.70;;;;;;5053020;28;20047;-76
2023/02/16 04:39:06;;;;;;;69.78;53.47;;;6.70;84.70;;;;;;5027593;28;20025;-77
2023/02/16 04:41:31;;;;;;;73.47;54.63;;;6.70;84.80;;;;;;5048318;28;20049;-77
2023/02/16 04:43:57;;;;;;;72.03;53.72;;;6.70;84.70;;;;;;5048592;28;20126;-75
2023/02/16 04:46:23;;;;;;;71.80;53.38;;;6.70;84.80;;;;;;5044384;28;20044;-75
2023/02/16 04:48:49;;;;;;;73.82;53.60;;;6.70;84.80;;;;;;5029740;28;20099;-76
2023/02/16 04:51:15;;;;;;;71.65;53.35;;;6.70;84.80;;;;;;5047750;28;20033;-77
2023/02/16 04:53:40;;;;;;;70.05;52.30;;;6.70;84.90;;;;;;5031419;28;20032;-78
2023/02/16 04:56:09;;;;;;;72.72;53.67;;;6.70;85.00;;;;;;5048878;28;20124;-76
2023/02/16 04:58:35;;;;;;;68.35;52.90;;;6.60;84.90;;;;;;5052923;28;20032;-77
2023/02/16 05:01:01;;;;;;;71.97;53.28;;;6.70;84.90;;;;;;5052731;28;20049;-77
2023/02/16 05:03:26;;;;;;;74.70;53.78;;;6.70;84.90;;;;;;5044814;28;20075;-79
2023/02/16 05:05:52;;;;;;;72.90;52.92;;;6.70;85.00;;;;;;5054977;28;20025;-74
2023/02/16 05:08:18;;;;;;;73.07;53.08;;;6.70;85.00;;;;;;5050220;28;20096;-77
2023/02/16 05:10:43;;;;;;;71.18;51.95;;;6.70;84.90;;;;;;5049962;28;20035;-75
2023/02/16 05:15:56;;;;;;;73.03;53.40;;;6.80;85.00;;;;;;5055292;28;20122;-76
2023/02/16 05:18:22;;;;;;;68.78;51.03;;;6.80;85.00;;;;;;5054369;28;20041;-78
2023/02/16 05:23:32;;;;;;;66.20;50.13;;;6.80;84.90;;;;;;5058395;28;20067;-75
2023/02/16 05:25:58;;;;;;;66.13;51.13;;;6.80;84.80;;;;;;5045892;28;20045;-74
2023/02/16 05:28:24;;;;;;;71.53;53.10;;;6.80;84.90;;;;;;5049916;28;20078;-76
2023/02/16 05:30:49;;;;;;;64.68;50.35;;;6.80;84.90;;;;;;5047321;28;20127;-74
2023/02/16 05:33:15;;;;;;;66.82;50.53;;;6.80;85.00;;;;;;5043654;28;20040;-75
2023/02/16 05:35:41;;;;;;;63.97;51.10;;;6.80;84.90;;;;;;5044308;28;20029;-80
2023/02/16 05:38:06;;;;;;;65.53;50.92;;;6.80;85.00;;;;;;5046189;28;20511;-77
2023/02/16 05:40:32;;;;;;;67.53;51.17;;;6.80;85.10;;;;;;5039699;28;20633;-74
2023/02/16 05:42:58;;;;;;;73.40;53.03;;;6.80;85.00;;;;;;5046524;28;20033;-73
2023/02/16 05:45:23;;;;;;;69.28;52.50;;;6.80;85.10;;;;;;5028042;28;20175;-76
2023/02/16 05:47:49;;;;;;;64.00;51.22;;;6.80;85.20;;;;;;5040323;28;20061;-80
2023/02/16 05:50:14;;;;;;;68.70;51.65;;;6.80;85.20;;;;;;5041598;28;20484;-75
2023/02/16 05:52:40;;;;;;;68.55;51.50;;;6.80;85.30;;;;;;5020692;28;20505;-76
2023/02/16 05:55:06;;;;;;;70.13;50.40;;;6.80;85.30;;;;;;5044056;28;20074;-76
2023/02/16 05:57:33;;;;;;;68.93;51.50;;;6.80;85.30;;;;;;5042702;28;20099;-75
2023/02/16 05:59:59;;;;;;;69.47;53.80;;;6.80;85.20;;;;;;5045750;28;20029;-76
2023/02/16 06:02:25;;;;;;;66.28;50.53;;;6.80;85.30;;;;;;5042977;28;20041;-76
2023/02/16 06:04:50;;;;;;;67.15;50.78;;;6.80;85.30;;;;;;5044632;28;20037;-76
2023/02/16 06:07:16;;;;;;;67.32;52.35;;;6.90;85.30;;;;;;5047243;28;20083;-73
2023/02/16 06:09:42;;;;;;;67.28;49.85;;;6.90;85.30;;;;;;5049807;28;20025;-75
2023/02/16 06:12:07;;;;;;;69.63;51.40;;;6.80;85.40;;;;;;5041495;28;20033;-75
2023/02/16 06:14:33;;;;;;;68.13;50.88;;;6.80;85.30;;;;;;5048946;28;20039;-75
2023/02/16 06:17:00;;;;;;;69.05;51.40;;;6.80;85.40;;;;;;5041521;28;21264;-73
2023/02/16 06:19:26;;;;;;;66.93;51.70;;;6.80;85.50;;;;;;5051123;28;20047;-74
2023/02/16 06:21:51;;;;;;;66.20;51.17;;;6.80;85.50;;;;;;5049676;28;20481;-78
2023/02/16 06:24:17;;;;;;;62.67;48.53;;;6.90;85.50;;;;;;5044970;28;20025;-74
2023/02/16 06:26:43;;;;;;;69.20;51.08;;;6.90;85.50;;;;;;5039130;28;20397;-75
2023/02/16 06:29:09;;;;;;;64.53;50.20;;;6.90;85.50;;;;;;5042597;28;20046;-78
2023/02/16 06:31:34;;;;;;;68.07;50.28;;;6.80;85.60;;;;;;5043081;28;20037;-73
2023/02/16 06:34:02;;;;;;;66.25;51.33;;;6.90;85.60;;;;;;5042286;28;20095;-74
2023/02/16 06:36:28;;;;;;;64.88;50.58;;;6.80;85.60;;;;;;5042697;28;20053;-73
2023/02/16 06:38:54;;;;;;;67.65;49.22;;;6.90;85.80;;;;;;5044558;28;20056;-73
2023/02/16 06:41:36;;;;;;;71.45;53.03;;;6.90;85.80;;;;;;5046076;28;20501;-73
2023/02/16 06:44:05;;;;;;;69.22;50.50;;;6.90;85.80;;;;;;5046027;28;20052;-73
2023/02/16 06:46:31;;;;;;;67.53;51.53;;;6.90;85.90;;;;;;5048061;28;20119;-74
2023/02/16 06:48:57;;;;;;;67.30;50.42;;;6.90;85.90;;;;;;5050942;28;20060;-74
2023/02/16 06:51:22;;;;;;;68.28;50.95;;;6.90;85.80;;;;;;5052752;28;20044;-76
2023/02/16 06:53:48;;;;;;;70.97;50.72;;;7.00;85.80;;;;;;5051019;28;20029;-74
2023/02/16 06:56:14;;;;;;;66.97;50.50;;;7.00;85.70;;;;;;5043641;28;20037;-75
2023/02/16 06:58:40;;;;;;;68.53;50.78;;;7.00;85.80;;;;;;5043817;28;20285;-77
2023/02/16 07:01:06;;;;;;;64.25;50.28;;;7.00;85.80;;;;;;5043324;28;20067;-74
2023/02/16 07:03:31;;;;;;;63.90;50.25;;;7.00;85.80;;;;;;5027940;28;20464;-75
2023/02/16 07:05:57;;;;;;;66.60;51.28;;;7.00;85.80;;;;;;5051159;28;20033;-75
2023/02/16 07:08:23;;;;;;;71.18;50.60;;;7.10;85.80;;;;;;5047044;28;20116;-76
2023/02/16 07:10:48;;;;;;;75.57;51.67;;;7.10;85.90;;;;;;5049232;28;20492;-73
2023/02/16 07:13:14;;;;;;;67.65;50.03;;;7.10;86.00;;;;;;5046584;28;20036;-76
2023/02/16 07:15:40;;;;;;;65.15;49.08;;;7.10;86.10;;;;;;5042715;28;20032;-75
2023/02/16 07:18:05;;;;;;;69.35;52.13;;;7.10;86.40;;;;;;5043631;28;20525;-75
2023/02/16 07:20:31;;;;;;;66.22;49.90;;;7.10;86.50;;;;;;5041429;28;20049;-76
2023/02/16 07:22:57;;;;;;;66.72;51.25;;;7.20;86.50;;;;;;5040231;28;20025;-75
2023/02/16 07:25:25;;;;;;;69.38;53.00;;;7.20;86.80;;;;;;5040887;28;20087;-74
2023/02/16 07:27:53;;;;;;;69.72;50.35;;;7.20;86.90;;;;;;5043588;28;20037;-75
2023/02/16 07:30:19;;;;;;;68.70;50.40;;;7.20;86.90;;;;;;5034471;28;20045;-75
2023/02/16 07:32:46;;;;;;;67.40;50.75;;;7.30;87.00;;;;;;5023064;28;20051;-73
2023/02/16 07:35:13;;;;;;;66.53;51.53;;;7.30;87.00;;;;;;5037738;28;20139;-75
2023/02/16 07:37:38;;;;;;;68.90;52.83;;;7.30;87.20;;;;;;5044428;28;20033;-78
2023/02/16 07:40:05;;;;;;;68.15;51.50;;;7.20;87.30;;;;;;5034729;28;20029;-78
2023/02/16 07:42:31;;;;;;;69.40;53.67;;;7.30;87.40;;;;;;5017397;28;20033;-80
2023/02/16 07:44:57;;;;;;;73.00;54.58;;;7.30;87.60;;;;;;5038864;28;20107;-78
2023/02/16 07:47:23;;;;;;;70.75;54.08;;;7.20;87.70;;;;;;5030195;28;20047;-79
2023/02/16 07:49:49;;;;;;;68.70;53.85;;;7.30;87.70;;;;;;5041916;28;20033;-80
2023/02/16 07:52:14;;;;;;;71.45;52.75;;;7.30;87.90;;;;;;5027929;28;20040;-79
2023/02/16 07:54:40;;;;;;;69.32;52.67;;;7.20;88.00;;;;;;5038875;28;21442;-79
2023/02/16 07:57:06;;;;;;;67.30;51.00;;;7.20;88.20;;;;;;5044104;28;20507;-79
2023/02/16 07:59:32;;;;;;;71.75;55.22;;;7.30;88.30;;;;;;5047564;28;20024;-79
2023/02/16 08:01:57;;;;;;;71.57;53.50;;;7.30;88.20;;;;;;5045178;28;20033;-79
2023/02/16 08:04:23;;;;;;;71.45;53.97;;;7.30;88.30;;;;;;5044915;28;20048;-78
2023/02/16 08:06:50;;;;;;;71.43;54.50;;;7.30;88.40;;;;;;5041218;28;20128;-78
2023/02/16 08:09:16;;;;;;;74.75;54.38;;;7.20;88.60;;;;;;5045400;28;20070;-78
2023/02/16 08:11:42;;;;;;;71.28;54.13;;;7.30;88.70;;;;;;5041166;28;20047;-78
2023/02/16 08:14:08;;;;;;;71.82;54.15;;;7.30;88.70;;;;;;5037586;28;20571;-78
2023/02/16 08:16:34;;;;;;;68.13;53.17;;;7.30;89.00;;;;;;5036135;28;20065;-79
2023/02/16 08:19:00;;;;;;;75.38;54.20;;;7.30;89.00;;;;;;5041911;28;20021;-78
2023/02/16 08:21:31;;;;;;;71.22;52.47;;;7.30;89.10;;;;;;5042919;28;20504;-78
2023/02/16 08:24:05;;;;;;;69.93;52.28;;;7.40;89.20;;;;;;5022419;28;20462;-78
2023/02/16 08:26:39;;;;;;;80.53;54.83;;;7.40;89.20;;;;;;5043868;28;20036;-78
2023/02/16 08:29:08;;;;;;;74.43;56.63;;;7.40;89.30;;;;;;5022285;28;20458;-78
2023/02/16 08:31:36;;;;;;;70.43;52.58;;;7.40;89.40;;;;;;5032426;28;20035;-76
2023/02/16 08:34:03;;;;;;;72.50;54.78;;;7.50;89.40;;;;;;5044859;28;20021;-79
2023/02/16 08:36:34;;;;;;;70.68;53.42;;;7.50;89.40;;;;;;5049989;28;20061;-79
2023/02/16 08:39:05;;;;;;;73.97;56.97;;;7.50;89.50;;;;;;5027099;28;20029;-78
2023/02/16 08:41:32;;;;;;;78.53;56.35;;;7.60;89.50;;;;;;5027137;28;20048;-79
2023/02/16 08:43:59;;;;;;;68.60;53.60;;;7.60;89.40;;;;;;5045249;28;20039;-78
2023/02/16 08:46:28;;;;;;;74.43;53.20;;;7.60;89.60;;;;;;5044615;28;20449;-80
2023/02/16 08:48:59;;;;;;;74.15;55.67;;;7.80;89.50;;;;;;5033630;28;20025;-77
2023/02/16 08:51:29;;;;;;;72.15;54.90;;;7.80;89.40;;;;;;5023628;28;20362;-78
2023/02/16 08:53:57;;;;;;;75.45;55.47;;;7.90;89.40;;;;;;5043742;28;20037;-78
2023/02/16 08:56:24;;;;;;;70.15;52.72;;;7.90;89.20;;;;;;5032992;28;20080;-76
2023/02/16 08:58:50;;;;;;;70.55;51.90;;;8.00;89.20;;;;;;5044179;28;20021;-77
2023/02/16 09:01:16;;;;;;;71.03;51.47;;;8.10;89.00;;;;;;5046203;28;20036;-77
2023/02/16 09:03:44;;;;;;;67.40;51.72;;;8.10;88.70;;;;;;5051141;28;20028;-75
2023/02/16 09:06:11;;;;;;;70.60;51.15;;;8.20;88.60;;;;;;5046463;28;20032;-79
2023/02/16 09:08:38;;;;;;;70.47;52.78;;;8.30;88.70;;;;;;5050251;28;20052;-79
2023/02/16 09:11:06;;;;;;;70.13;51.90;;;8.40;88.50;;;;;;5046554;28;20043;-79
2023/02/16 09:13:36;;;;;;;64.78;50.42;;;8.50;88.20;;;;;;5038332;28;20029;-79
2023/02/16 09:16:08;;;;;;;65.63;50.25;;;8.50;87.90;;;;;;5041858;28;20123;-79
2023/02/16 09:18:36;;;;;;;64.85;50.10;;;8.50;88.00;;;;;;5051428;28;20045;-78
2023/02/16 09:21:09;;;;;;;67.70;49.63;;;8.50;88.00;;;;;;5049602;28;20052;-79
2023/02/16 09:23:39;;;;;;;65.90;50.15;;;8.60;88.10;;;;;;5032548;28;20058;-78
2023/02/16 09:26:06;;;;;;;62.30;49.72;;;8.70;87.80;;;;;;5049110;28;20100;-79
2023/02/16 09:28:37;;;;;;;60.30;46.53;;;8.80;87.60;;;;;;5046777;28;20161;-76
2023/02/16 09:31:13;;;;;;;63.10;49.17;;;8.80;87.50;;;;;;5040941;28;20044;-85
2023/02/16 09:33:42;;;;;;;67.10;48.10;;;8.90;87.50;;;;;;5044422;28;20041;-80
2023/02/16 09:36:10;;;;;;;68.28;47.38;;;8.90;87.50;;;;;;5047865;28;20068;-81
2023/02/16 09:38:40;;;;;;;62.05;47.42;;;8.90;87.30;;;;;;5050968;28;20039;-84
2023/02/16 09:41:14;;;;;;;60.42;46.17;;;9.00;87.50;;;;;;5029533;28;20531;-84
2023/02/16 09:43:48;;;;;;;66.68;48.92;;;9.10;87.10;;;;;;5044908;28;20025;-79
2023/02/16 09:46:19;;;;;;;59.03;46.80;;;9.10;87.00;;;;;;5036376;28;20500;-82
2023/02/16 09:48:48;;;;;;;58.35;45.85;;;9.10;86.80;;;;;;5048893;28;20481;-81
2023/02/16 09:51:23;;;;;;;61.63;47.95;;;9.20;86.90;;;;;;5047274;28;20574;-82
2023/02/16 09:53:57;;;;;;;60.88;47.83;;;9.40;86.70;;;;;;5047988;28;20032;-82
2023/02/16 09:56:37;;;;;;;59.95;47.60;;;9.40;86.60;;;;;;5041201;28;20029;-80
2023/02/16 09:59:35;;;;;;;60.47;46.03;;;9.50;86.70;;;;;;5043632;28;20110;-81
2023/02/16 10:02:22;;;;;;;60.72;45.80;;;9.60;86.60;;;;;;5043595;28;20037;-80
2023/02/16 10:04:55;;;;;;;53.25;45.63;;;9.60;86.20;;;;;;5045875;28;20025;-82
2023/02/16 10:07:42;;;;;;;60.90;46.28;;;9.60;86.30;;;;;;5046955;28;20124;-78
2023/02/16 10:10:14;;;;;;;62.03;46.03;;;9.70;86.20;;;;;;5050480;28;20273;-88
2023/02/16 10:12:45;;;;;;;55.78;44.03;;;9.80;86.30;;;;;;5044930;28;20044;-81
2023/02/16 10:15:19;;;;;;;55.92;44.00;;;9.90;85.70;;;;;;5046850;28;20067;-83
2023/02/16 10:17:51;;;;;;;57.00;46.13;;;9.80;85.10;;;;;;5046912;28;20029;-80
2023/02/16 10:20:31;;;;;;;52.83;43.15;;;9.90;85.40;;;;;;5047343;28;20094;-79
2023/02/16 10:23:11;;;;;;;55.20;44.67;;;9.90;85.40;;;;;;5048603;28;20033;-80
2023/02/16 10:25:53;;;;;;;56.17;43.33;;;9.90;85.40;;;;;;5049921;28;20036;-81
2023/02/16 10:28:25;;;;;;;53.53;42.45;;;9.80;85.20;;;;;;5048538;28;20025;-80
2023/02/16 10:31:29;;;;;;;57.45;43.30;;;9.90;85.40;;;;;;5033257;28;20047;-79
2023/02/16 10:34:21;;;;;;;54.35;42.50;;;10.00;84.90;;;;;;5033013;28;20397;-82
2023/02/16 10:37:06;;;;;;;51.40;41.80;;;10.10;84.70;;;;;;5052975;28;20127;-82
2023/02/16 10:39:41;;;;;;;50.63;41.38;;;10.10;84.70;;;;;;5042529;28;20028;-81
2023/02/16 10:42:34;;;;;;;52.65;41.30;;;10.10;84.70;;;;;;5042480;28;20056;-77
2023/02/16 10:45:09;;;;;;;53.90;43.40;;;10.20;84.80;;;;;;5036681;28;20365;-75
2023/02/16 10:47:39;;;;;;;54.45;43.08;;;10.20;84.40;;;;;;5029605;28;20045;-74
2023/02/16 10:50:14;;;;;;;51.13;41.22;;;10.10;84.40;;;;;;5045966;28;20485;-75
2023/02/16 10:52:42;;;;;;;51.72;42.00;;;10.20;84.60;;;;;;5052770;28;20036;-76
2023/02/16 10:55:08;;;;;;;50.08;41.67;;;10.30;84.40;;;;;;5044601;28;20032;-75
2023/02/16 10:57:33;;;;;;;51.95;41.55;;;10.40;84.40;;;;;;5043651;28;20029;-77
2023/02/16 11:00:09;;;;;;;48.50;40.45;;;10.50;84.10;;;;;;5051963;28;20037;-76
2023/02/16 11:02:35;;;;;;;51.20;41.83;;;10.60;83.80;;;;;;5030551;28;20061;-77
2023/02/16 11:05:03;;;;;;;49.78;39.17;;;10.70;83.60;;;;;;5045995;28;20032;-76
2023/02/16 11:07:30;;;;;;;48.83;40.03;;;10.90;83.30;;;;;;5047905;28;20485;-78
2023/02/16 11:10:00;;;;;;;52.28;39.72;;;11.00;82.80;;;;;;5047236;28;20427;-77
2023/02/16 11:12:35;;;;;;;50.75;37.00;;;11.10;82.60;;;;;;5046258;28;20041;-76
2023/02/16 11:15:12;;;;;;;51.67;39.30;;;11.20;82.60;;;;;;5028157;28;20033;-77
2023/02/16 11:18:03;;;;;;;48.28;39.13;;;11.30;81.90;;;;;;5023967;28;20041;-77
2023/02/16 11:20:56;;;;;;;49.42;38.17;;;11.40;82.00;;;;;;5021235;28;20041;-77
2023/02/16 11:23:36;;;;;;;44.90;37.70;;;11.40;82.00;;;;;;5026382;28;20061;-78
2023/02/16 11:26:11;;;;;;;47.53;36.95;;;11.50;81.80;;;;;;5036364;28;20049;-77
2023/02/16 11:28:39;;;;;;;;;;;11.60;81.60;;;;;;5032205;28;20029;-77
2023/02/16 11:31:30;;;;;;;45.00;35.97;;;11.80;81.40;;;;;;5032462;28;19982;-78
2023/02/16 11:33:56;;;;;;;45.15;35.70;;;12.00;81.00;;;;;;5035711;28;20033;-78
2023/02/16 11:36:31;;;;;;;46.92;37.22;;;12.10;80.10;;;;;;5032132;28;20253;-78
2023/02/16 11:39:20;;;;;;;47.80;37.17;;;12.30;79.80;;;;;;5034685;28;20048;-78
2023/02/16 11:41:49;;;;;;;41.83;34.28;;;12.30;79.30;;;;;;5032878;28;20041;-79
2023/02/16 11:44:26;;;;;;;44.90;35.90;;;12.50;79.10;;;;;;5031155;28;20037;-78
2023/02/16 11:46:55;;;;;;;43.25;33.75;;;12.50;79.00;;;;;;5021662;28;20385;-76
2023/02/16 11:49:29;;;;;;;45.78;34.20;;;12.50;78.70;;;;;;5034101;28;20056;-80
2023/02/16 11:51:56;;;;;;;45.13;33.83;;;12.20;78.90;;;;;;5035847;28;20063;-79
2023/02/16 11:54:22;;;;;;;43.95;34.97;;;12.20;79.60;;;;;;5016032;28;20033;-78
2023/02/16 11:57:05;;;;;;;41.60;34.45;;;12.30;79.30;;;;;;5015329;28;20033;-79
2023/02/16 11:59:39;;;;;;;43.28;34.83;;;12.40;79.10;;;;;;5032401;28;20048;-78
2023/02/16 12:02:45;;;;;;;45.22;34.35;;;12.40;79.00;;;;;;5032003;28;20571;-76
2023/02/16 12:05:24;;;;;;;46.28;36.00;;;12.40;78.70;;;;;;5004580;28;20060;-79
2023/02/16 12:07:50;;;;;;;46.35;34.80;;;12.40;79.40;;;;;;5032578;28;20049;-80
2023/02/16 12:10:33;;;;;;;44.85;35.13;;;12.50;79.20;;;;;;5031767;28;20045;-74
2023/02/16 12:13:22;;;;;;;42.05;33.65;;;12.50;79.30;;;;;;5034382;28;20043;-78
2023/02/16 12:16:33;;;;;;;40.00;32.53;;;12.60;79.20;;;;;;5034107;28;20033;-74
2023/02/16 12:19:07;;;;;;;43.10;32.47;;;12.70;78.80;;;;;;5008483;28;20120;-77
2023/02/16 12:21:33;;;;;;;;;;;12.70;78.90;;;;;;5013948;28;20691;-76
2023/02/16 12:24:37;;;;;;;39.88;32.72;;;12.70;78.80;;;;;;5017530;28;19916;-77
2023/02/16 12:27:17;;;;;;;43.90;32.80;;;12.70;78.90;;;;;;5032668;28;20037;-77
2023/02/16 12:30:10;;;;;;;43.10;32.97;;;12.70;78.60;;;;;;5035829;28;20143;-75
2023/02/16 12:32:43;;;;;;;42.42;33.40;;;12.80;78.30;;;;;;5038629;28;20124;-74
2023/02/16 12:35:20;;;;;;;42.78;32.33;;;12.90;78.50;;;;;;5034143;28;20071;-75
2023/02/16 12:37:58;;;;;;;41.15;32.30;;;12.90;78.00;;;;;;5019982;28;20677;-75
2023/02/16 12:40:26;;;;;;;41.33;31.67;;;13.00;77.60;;;;;;5043159;28;20025;-78
2023/02/16 12:43:07;;;;;;;40.45;30.48;;;13.10;77.70;;;;;;5041389;28;20052;-76
2023/02/16 12:45:38;;;;;;;38.78;30.75;;;13.20;77.70;;;;;;5041333;28;20029;-75
2023/02/16 12:48:27;;;;;;;42.83;30.67;;;13.10;77.80;;;;;;5023980;28;20037;-80
2023/02/16 12:50:55;;;;;;;36.80;30.70;;;13.10;77.90;;;;;;5039847;28;20111;-78
2023/02/16 12:53:29;;;;;;;40.05;27.35;;;13.20;77.60;;;;;;5047788;28;20041;-77
2023/02/16 12:56:03;;;;;;;31.40;23.30;;;13.30;77.10;;;;;;5041853;28;20094;-75
2023/02/16 12:58:41;;;;;;;31.17;23.08;;;13.20;76.30;;;;;;5041133;28;20025;-75
2023/02/16 13:01:10;;;;;;;27.45;21.85;;;13.30;76.00;;;;;;5044298;28;20037;-76
2023/02/16 13:03:43;;;;;;;30.88;23.17;;;13.30;75.50;;;;;;5045276;28;20055;-76
2023/02/16 13:06:31;;;;;;;30.52;21.80;;;13.30;75.40;;;;;;5018838;28;20479;-75
2023/02/16 13:09:27;;;;;;;30.17;23.45;;;13.40;75.00;;;;;;5048737;28;20410;-76
2023/02/16 13:11:58;;;;;;;29.15;23.38;;;13.30;74.90;;;;;;5045353;28;20418;-77
2023/02/16 13:14:31;;;;;;;28.35;23.05;;;13.20;75.40;;;;;;5042499;28;20420;-76
2023/02/16 13:17:09;;;;;;;30.30;22.92;;;13.30;75.20;;;;;;5052137;28;20025;-80
2023/02/16 13:19:35;;;;;;;28.52;22.38;;;13.20;75.10;;;;;;5048899;28;20029;-77
2023/02/16 13:22:22;;;;;;;36.67;22.75;;;13.20;75.10;;;;;;5048213;28;20036;-78
2023/02/16 13:25:00;;;;;;;28.63;23.77;;;13.10;75.30;;;;;;5048076;28;20462;-75
2023/02/16 13:27:39;;;;;;;32.03;23.90;;;13.10;75.70;;;;;;5045446;28;20095;-75
2023/02/16 13:30:32;;;;;;;31.27;24.48;;;13.20;75.70;;;;;;5043189;28;20044;-77
2023/02/16 13:33:13;;;;;;;36.00;25.17;;;13.20;75.70;;;;;;5031998;28;20227;-77
2023/02/16 13:36:09;;;;;;;30.63;24.17;;;13.30;75.50;;;;;;5043112;28;20021;-77
2023/02/16 13:38:53;;;;;;;32.92;24.92;;;13.40;75.30;;;;;;5046472;28;20491;-76
2023/02/16 13:41:54;;;;;;;32.28;25.40;;;13.30;74.70;;;;;;5040276;28;20052;-75
2023/02/16 13:44:45;;;;;;;35.28;25.70;;;13.40;74.90;;;;;;5039842;28;20028;-79
2023/02/16 13:47:16;;;;;;;32.63;24.98;;;13.40;75.20;;;;;;5020624;28;20524;-76
2023/02/16 13:49:42;;;;;;;36.75;25.92;;;13.30;75.20;;;;;;5040775;28;20643;-78